createdAt,value
2022-12-01T00:00:34.847Z,19.13
2022-12-01T00:03:09.110Z,18.25
2022-12-01T00:05:42.809Z,15.43
2022-12-01T00:08:16.091Z,16.92
2022-12-01T00:10:48.341Z,18.73
2022-12-01T00:15:56.549Z,19.00
2022-12-01T00:18:29.978Z,16.13
2022-12-01T00:21:03.249Z,15.70
2022-12-01T00:23:36.752Z,17.80
2022-12-01T00:26:12.102Z,19.70
2022-12-01T00:28:50.095Z,16.75
2022-12-01T00:31:23.890Z,18.38
2022-12-01T00:33:57.219Z,17.15
2022-12-01T00:36:30.661Z,17.30
2022-12-01T00:39:03.960Z,17.23
2022-12-01T00:41:37.218Z,16.92
2022-12-01T00:44:12.218Z,16.83
2022-12-01T00:46:45.525Z,18.25
2022-12-01T00:49:19.004Z,15.43
2022-12-01T00:51:52.416Z,15.65
2022-12-01T00:54:25.874Z,17.73
2022-12-01T00:56:59.670Z,19.02
2022-12-01T00:59:35.137Z,15.45
2022-12-01T01:02:09.538Z,15.35
2022-12-01T01:04:42.963Z,15.95
2022-12-01T01:07:16.261Z,18.25
2022-12-01T01:09:50.150Z,18.38
2022-12-01T01:12:23.523Z,19.63
2022-12-01T01:14:58.490Z,20.58
2022-12-01T01:17:31.945Z,17.45
2022-12-01T01:20:06.926Z,16.65
2022-12-01T01:22:40.517Z,15.88
2022-12-01T01:25:14.103Z,16.27
2022-12-01T01:27:47.392Z,15.68
2022-12-01T01:30:22.315Z,16.88
2022-12-01T01:32:55.611Z,15.63
2022-12-01T01:35:29.334Z,17.77
2022-12-01T01:38:02.587Z,15.98
2022-12-01T01:40:36.306Z,17.58
2022-12-01T01:43:16.032Z,16.23
2022-12-01T01:45:50.749Z,15.05
2022-12-01T01:48:24.386Z,16.10
2022-12-01T01:50:57.720Z,16.52
2022-12-01T01:53:32.031Z,15.80
2022-12-01T01:56:07.115Z,15.02
2022-12-01T01:58:41.707Z,15.52
2022-12-01T02:01:16.733Z,16.90
2022-12-01T02:03:53.757Z,16.92
2022-12-01T02:06:27.167Z,16.63
2022-12-01T02:09:00.645Z,15.23
2022-12-01T02:12:01.259Z,16.35
2022-12-01T02:14:58.760Z,15.98
2022-12-01T02:17:45.823Z,13.80
2022-12-01T02:20:47.753Z,16.60
2022-12-01T02:23:48.967Z,17.30
2022-12-01T02:26:46.005Z,18.05
2022-12-01T02:29:54.903Z,15.00
2022-12-01T02:32:35.494Z,14.55
2022-12-01T02:35:14.977Z,14.20
2022-12-01T02:38:00.323Z,15.73
2022-12-01T02:40:39.697Z,15.00
2022-12-01T02:43:21.414Z,15.98
2022-12-01T02:46:00.035Z,16.17
2022-12-01T02:48:36.574Z,17.80
2022-12-01T02:51:15.614Z,18.73
2022-12-01T02:53:49.160Z,15.45
2022-12-01T02:56:24.434Z,18.73
2022-12-01T02:58:57.679Z,16.60
2022-12-01T03:01:45.148Z,17.02
2022-12-01T03:04:43.901Z,17.17
2022-12-01T03:07:33.398Z,16.25
2022-12-01T03:10:16.804Z,16.98
2022-12-01T03:13:01.925Z,15.65
2022-12-01T03:15:40.520Z,15.20
2022-12-01T03:18:26.719Z,16.48
2022-12-01T03:21:05.775Z,15.00
2022-12-01T03:23:44.925Z,13.93
2022-12-01T03:26:20.701Z,15.30
2022-12-01T03:28:57.921Z,13.80
2022-12-01T03:31:36.278Z,10.45
2022-12-01T03:34:16.427Z,13.52
2022-12-01T03:36:54.850Z,8.90
2022-12-01T03:39:33.332Z,7.95
2022-12-01T03:42:13.043Z,7.88
2022-12-01T03:44:51.633Z,8.13
2022-12-01T03:47:29.565Z,7.70
2022-12-01T03:50:04.237Z,9.85
2022-12-01T03:52:46.934Z,6.82
2022-12-01T03:55:24.662Z,6.65
2022-12-01T03:58:02.375Z,8.35
2022-12-01T04:00:36.812Z,7.00
2022-12-01T04:03:17.634Z,6.28
2022-12-01T04:05:51.203Z,7.80
2022-12-01T04:08:26.265Z,7.63
2022-12-01T04:10:59.590Z,6.63
2022-12-01T04:13:33.088Z,7.20
2022-12-01T04:16:06.979Z,6.68
2022-12-01T04:18:40.245Z,6.65
2022-12-01T04:21:13.961Z,6.00
2022-12-01T04:24:03.890Z,7.45
2022-12-01T04:26:38.501Z,6.80
2022-12-01T04:29:13.408Z,6.53
2022-12-01T04:31:46.921Z,7.13
2022-12-01T04:34:20.263Z,6.13
2022-12-01T04:36:53.708Z,6.10
2022-12-01T04:39:28.626Z,6.60
2022-12-01T04:42:02.113Z,6.03
2022-12-01T04:44:35.536Z,5.75
2022-12-01T04:47:09.021Z,6.65
2022-12-01T04:49:42.545Z,6.28
2022-12-01T04:52:16.019Z,7.07
2022-12-01T04:54:50.642Z,9.25
2022-12-01T04:57:23.901Z,12.55
2022-12-01T04:59:57.505Z,12.35
2022-12-01T05:02:30.853Z,13.48
2022-12-01T05:05:07.058Z,9.27
2022-12-01T05:07:40.390Z,8.20
2022-12-01T05:10:15.629Z,9.10
2022-12-01T05:12:49.006Z,10.55
2022-12-01T05:15:22.734Z,10.65
2022-12-01T05:17:55.988Z,9.68
2022-12-01T05:20:46.684Z,9.10
2022-12-01T05:23:19.995Z,10.65
2022-12-01T05:25:55.194Z,12.27
2022-12-01T05:28:28.974Z,11.98
2022-12-01T05:31:02.640Z,10.60
2022-12-01T05:33:36.119Z,10.27
2022-12-01T05:36:10.058Z,7.53
2022-12-01T05:38:43.314Z,7.07
2022-12-01T05:41:18.211Z,8.07
2022-12-01T05:43:51.555Z,7.38
2022-12-01T05:46:24.924Z,7.00
2022-12-01T05:48:58.273Z,31.33
2022-12-01T05:51:31.506Z,28.88
2022-12-01T05:54:05.001Z,36.08
2022-12-01T05:56:39.666Z,48.13
2022-12-01T05:59:13.303Z,44.47
2022-12-01T06:01:46.610Z,38.08
2022-12-01T06:04:22.097Z,40.90
2022-12-01T06:06:55.350Z,32.90
2022-12-01T06:09:28.789Z,37.83
2022-12-01T06:12:03.426Z,27.55
2022-12-01T06:14:36.687Z,23.58
2022-12-01T06:17:10.138Z,15.02
2022-12-01T06:19:44.518Z,15.75
2022-12-01T06:22:17.811Z,11.93
2022-12-01T06:24:51.132Z,12.23
2022-12-01T06:27:25.961Z,9.48
2022-12-01T06:29:59.358Z,9.32
2022-12-01T06:32:32.637Z,7.35
2022-12-01T06:35:06.565Z,8.52
2022-12-01T06:37:39.832Z,6.03
2022-12-01T06:40:14.004Z,7.05
2022-12-01T06:42:48.607Z,5.88
2022-12-01T06:45:21.884Z,7.80
2022-12-01T06:47:55.509Z,7.93
2022-12-01T06:50:28.834Z,8.73
2022-12-01T06:53:02.176Z,8.77
2022-12-01T06:55:35.714Z,8.65
2022-12-01T06:58:10.888Z,8.23
2022-12-01T07:00:48.978Z,8.52
2022-12-01T07:03:25.451Z,7.78
2022-12-01T07:06:00.226Z,7.10
2022-12-01T07:08:33.962Z,4.43
2022-12-01T07:11:09.076Z,4.65
2022-12-01T07:13:46.059Z,5.10
2022-12-01T07:16:19.389Z,4.97
2022-12-01T07:18:53.375Z,4.70
2022-12-01T07:21:26.657Z,5.13
2022-12-01T07:24:00.728Z,4.18
2022-12-01T07:26:34.053Z,5.35
2022-12-01T07:29:08.811Z,5.50
2022-12-01T07:31:42.351Z,6.68
2022-12-01T07:34:15.768Z,5.88
2022-12-01T07:36:49.041Z,7.68
2022-12-01T07:39:22.381Z,7.38
2022-12-01T07:41:56.785Z,10.00
2022-12-01T07:44:31.495Z,8.25
2022-12-01T07:47:04.813Z,6.97
2022-12-01T07:49:38.795Z,6.95
2022-12-01T07:52:12.080Z,8.25
2022-12-01T07:54:45.401Z,7.75
2022-12-01T07:57:20.562Z,7.70
2022-12-01T07:59:55.170Z,7.45
2022-12-01T08:02:28.568Z,7.03
2022-12-01T08:05:01.879Z,6.30
2022-12-01T08:07:35.199Z,4.63
2022-12-01T08:10:09.334Z,5.50
2022-12-01T08:12:42.670Z,4.07
2022-12-01T08:15:17.509Z,4.85
2022-12-01T08:17:50.886Z,4.07
2022-12-01T08:20:24.319Z,5.10
2022-12-01T08:23:01.179Z,4.25
2022-12-01T08:25:34.645Z,4.35
2022-12-01T08:28:07.962Z,4.65
2022-12-01T08:30:42.660Z,4.45
2022-12-01T08:33:15.934Z,6.30
2022-12-01T08:35:49.228Z,5.45
2022-12-01T08:38:22.705Z,14.00
2022-12-01T08:40:57.097Z,13.05
2022-12-01T08:46:25.271Z,9.13
2022-12-01T08:49:01.645Z,10.10
2022-12-01T08:51:35.938Z,12.80
2022-12-01T08:54:10.186Z,7.32
2022-12-01T08:56:45.842Z,4.88
2022-12-01T08:59:19.089Z,5.22
2022-12-01T09:01:53.864Z,5.50
2022-12-01T09:04:28.143Z,6.15
2022-12-01T09:07:01.576Z,5.60
2022-12-01T09:09:36.429Z,4.78
2022-12-01T09:12:10.390Z,5.60
2022-12-01T09:14:48.173Z,4.40
2022-12-01T09:17:23.652Z,4.60
2022-12-01T09:19:56.909Z,4.55
2022-12-01T09:22:30.146Z,4.30
2022-12-01T09:25:03.590Z,5.43
2022-12-01T09:27:36.861Z,5.53
2022-12-01T09:30:11.009Z,6.53
2022-12-01T09:32:45.619Z,4.22
2022-12-01T09:35:23.237Z,4.80
2022-12-01T09:37:56.883Z,4.10
2022-12-01T09:40:33.533Z,4.40
2022-12-01T09:43:14.108Z,4.60
2022-12-01T09:45:52.400Z,4.60
2022-12-01T09:48:31.676Z,4.65
2022-12-01T09:51:05.217Z,5.35
2022-12-01T09:53:38.951Z,4.90
2022-12-01T09:56:21.757Z,5.38
2022-12-01T10:01:35.433Z,5.85
2022-12-01T10:04:15.863Z,5.90
2022-12-01T10:06:55.768Z,5.03
2022-12-01T10:09:36.918Z,5.30
2022-12-01T10:12:15.697Z,7.43
2022-12-01T10:14:49.956Z,7.60
2022-12-01T10:17:30.004Z,6.70
2022-12-01T10:20:11.986Z,5.95
2022-12-01T10:23:13.516Z,4.47
2022-12-01T10:25:57.285Z,6.13
2022-12-01T10:28:54.101Z,5.47
2022-12-01T10:31:32.509Z,4.70
2022-12-01T10:34:11.831Z,5.45
2022-12-01T10:36:47.015Z,6.28
2022-12-01T10:39:24.117Z,10.57
2022-12-01T10:42:03.833Z,6.53
2022-12-01T10:44:37.440Z,6.28
2022-12-01T10:47:18.456Z,6.70
2022-12-01T10:49:52.555Z,8.43
2022-12-01T10:52:36.109Z,7.68
2022-12-01T10:55:28.064Z,8.65
2022-12-01T10:58:09.252Z,8.37
2022-12-01T11:01:01.149Z,6.13
2022-12-01T11:03:36.913Z,5.45
2022-12-01T11:06:12.036Z,6.70
2022-12-01T11:08:52.078Z,4.35
2022-12-01T11:11:33.873Z,4.90
2022-12-01T11:14:18.014Z,5.75
2022-12-01T11:16:54.179Z,8.20
2022-12-01T11:19:33.586Z,6.20
2022-12-01T11:22:25.028Z,4.65
2022-12-01T11:25:03.034Z,5.18
2022-12-01T11:27:45.479Z,7.15
2022-12-01T11:30:24.283Z,4.38
2022-12-01T11:33:00.964Z,6.18
2022-12-01T11:35:36.441Z,6.22
2022-12-01T11:38:30.124Z,7.10
2022-12-01T11:41:05.242Z,5.50
2022-12-01T11:43:42.626Z,6.35
2022-12-01T11:46:31.610Z,7.05
2022-12-01T11:49:05.560Z,6.05
2022-12-01T11:51:39.181Z,6.25
2022-12-01T11:54:18.314Z,5.88
2022-12-01T11:57:17.799Z,7.28
2022-12-01T11:59:48.247Z,6.75
2022-12-01T12:02:31.115Z,7.07
2022-12-01T12:05:37.262Z,5.03
2022-12-01T12:08:18.278Z,4.63
2022-12-01T12:11:00.661Z,4.80
2022-12-01T12:14:38.091Z,5.30
2022-12-01T12:17:25.828Z,7.32
2022-12-01T12:20:20.146Z,5.10
2022-12-01T12:23:02.993Z,5.82
2022-12-01T12:25:52.495Z,6.25
2022-12-01T12:28:39.413Z,6.65
2022-12-01T12:31:23.461Z,6.55
2022-12-01T12:34:22.740Z,7.32
2022-12-01T12:37:09.657Z,6.22
2022-12-01T12:40:05.721Z,6.88
2022-12-01T12:42:49.094Z,8.15
2022-12-01T12:45:27.736Z,13.88
2022-12-01T12:48:21.689Z,12.13
2022-12-01T12:51:04.882Z,8.35
2022-12-01T12:53:46.009Z,7.57
2022-12-01T12:56:23.130Z,5.55
2022-12-01T12:59:01.280Z,6.43
2022-12-01T13:01:39.593Z,5.88
2022-12-01T13:04:20.316Z,6.97
2022-12-01T13:07:02.176Z,5.88
2022-12-01T13:09:39.192Z,4.95
2022-12-01T13:12:17.316Z,6.13
2022-12-01T13:15:01.009Z,6.55
2022-12-01T13:17:38.526Z,6.53
2022-12-01T13:20:18.282Z,7.35
2022-12-01T13:22:52.878Z,7.07
2022-12-01T13:25:31.069Z,7.07
2022-12-01T13:28:06.803Z,8.23
2022-12-01T13:30:40.124Z,8.73
2022-12-01T13:33:17.510Z,8.27
2022-12-01T13:36:22.509Z,7.03
2022-12-01T13:38:58.362Z,8.93
2022-12-01T13:41:34.437Z,6.05
2022-12-01T13:44:10.089Z,7.60
2022-12-01T13:47:03.849Z,7.28
2022-12-01T13:49:42.190Z,7.95
2022-12-01T13:52:34.079Z,7.15
2022-12-01T13:55:28.761Z,6.43
2022-12-01T13:58:43.933Z,6.80
2022-12-01T14:01:45.559Z,6.60
2022-12-01T14:04:29.844Z,7.95
2022-12-01T14:07:27.062Z,6.38
2022-12-01T14:10:25.379Z,7.30
2022-12-01T14:13:03.372Z,8.73
2022-12-01T14:15:43.888Z,8.13
2022-12-01T14:18:34.147Z,7.45
2022-12-01T14:21:10.453Z,7.55
2022-12-01T14:24:02.238Z,8.95
2022-12-01T14:26:45.645Z,9.27
2022-12-01T14:29:31.716Z,9.85
2022-12-01T14:32:26.257Z,8.88
2022-12-01T14:35:14.907Z,9.23
2022-12-01T14:37:50.613Z,8.63
2022-12-01T14:40:29.768Z,8.88
2022-12-01T14:43:23.457Z,8.05
2022-12-01T14:46:07.206Z,8.13
2022-12-01T14:48:44.026Z,7.82
2022-12-01T14:51:25.136Z,8.27
2022-12-01T14:54:00.327Z,8.50
2022-12-01T14:56:35.172Z,6.60
2022-12-01T14:59:22.090Z,7.85
2022-12-01T15:01:58.858Z,8.25
2022-12-01T15:04:34.026Z,10.70
2022-12-01T15:07:08.239Z,9.07
2022-12-01T15:10:00.783Z,9.63
2022-12-01T15:12:34.679Z,10.68
2022-12-01T15:15:22.280Z,10.73
2022-12-01T15:18:01.730Z,11.77
2022-12-01T15:20:38.018Z,9.95
2022-12-01T15:23:15.595Z,10.98
2022-12-01T15:25:48.881Z,11.23
2022-12-01T15:28:30.076Z,9.82
2022-12-01T15:31:12.527Z,9.25
2022-12-01T15:33:51.641Z,9.70
2022-12-01T15:36:25.174Z,10.93
2022-12-01T15:39:06.803Z,9.52
2022-12-01T15:41:42.795Z,10.80
2022-12-01T15:44:21.732Z,8.32
2022-12-01T15:46:56.814Z,10.57
2022-12-01T15:49:34.456Z,9.13
2022-12-01T15:52:10.130Z,11.52
2022-12-01T15:54:48.911Z,13.80
2022-12-01T15:57:23.536Z,12.73
2022-12-01T16:00:01.067Z,14.57
2022-12-01T16:02:35.871Z,15.23
2022-12-01T16:05:18.294Z,10.93
2022-12-01T16:08:13.126Z,13.05
2022-12-01T16:10:45.937Z,14.10
2022-12-01T16:13:47.821Z,16.58
2022-12-01T16:16:27.594Z,12.40
2022-12-01T16:19:07.972Z,12.50
2022-12-01T16:21:46.109Z,14.30
2022-12-01T16:24:22.223Z,13.32
2022-12-01T16:27:00.398Z,11.98
2022-12-01T16:29:43.999Z,12.43
2022-12-01T16:32:21.735Z,11.02
2022-12-01T16:34:56.812Z,9.32
2022-12-01T16:37:30.183Z,11.38
2022-12-01T16:40:06.040Z,10.48
2022-12-01T16:42:39.314Z,15.30
2022-12-01T16:45:14.944Z,17.08
2022-12-01T16:47:49.847Z,10.60
2022-12-01T16:50:24.714Z,11.10
2022-12-01T16:52:58.075Z,12.20
2022-12-01T16:55:38.462Z,14.93
2022-12-01T16:58:11.737Z,17.45
2022-12-01T17:00:45.050Z,14.25
2022-12-01T17:03:18.426Z,13.30
2022-12-01T17:05:53.831Z,13.95
2022-12-01T17:08:27.234Z,11.77
2022-12-01T17:11:01.109Z,14.80
2022-12-01T17:13:34.983Z,15.55
2022-12-01T17:16:16.714Z,12.25
2022-12-01T17:18:51.578Z,9.65
2022-12-01T17:21:26.239Z,10.55
2022-12-01T17:23:59.584Z,9.32
2022-12-01T17:26:32.950Z,10.65
2022-12-01T17:29:06.329Z,9.75
2022-12-01T17:31:40.541Z,10.82
2022-12-01T17:34:13.936Z,10.75
2022-12-01T17:36:48.615Z,11.35
2022-12-01T17:39:22.420Z,9.32
2022-12-01T17:41:55.749Z,11.43
2022-12-01T17:44:29.095Z,10.40
2022-12-01T17:47:02.459Z,10.98
2022-12-01T17:49:36.960Z,10.75
2022-12-01T17:52:11.684Z,9.30
2022-12-01T17:54:45.068Z,14.80
2022-12-01T17:57:18.373Z,12.40
2022-12-01T17:59:51.656Z,11.18
2022-12-01T18:02:25.144Z,10.88
2022-12-01T18:04:58.606Z,9.88
2022-12-01T18:07:33.437Z,12.00
2022-12-01T18:10:08.083Z,9.95
2022-12-01T18:12:41.441Z,10.75
2022-12-01T18:15:14.822Z,12.90
2022-12-01T18:17:48.154Z,13.40
2022-12-01T18:20:21.848Z,11.43
2022-12-01T18:22:56.542Z,11.70
2022-12-01T18:25:29.832Z,11.27
2022-12-01T18:28:03.147Z,10.95
2022-12-01T18:30:36.505Z,10.70
2022-12-01T18:33:12.317Z,11.55
2022-12-01T18:35:46.040Z,10.55
2022-12-01T18:38:20.700Z,12.45
2022-12-01T18:40:57.454Z,13.73
2022-12-01T18:43:32.650Z,12.60
2022-12-01T18:46:07.085Z,15.77
2022-12-01T18:48:45.680Z,42.97
2022-12-01T18:51:19.820Z,19.83
2022-12-01T18:53:57.399Z,27.77
2022-12-01T18:56:30.827Z,16.42
2022-12-01T18:59:07.664Z,15.10
2022-12-01T19:01:44.005Z,12.70
2022-12-01T19:04:18.213Z,18.95
2022-12-01T19:06:51.534Z,17.55
2022-12-01T19:09:26.212Z,26.52
2022-12-01T19:12:00.803Z,19.80
2022-12-01T19:14:34.208Z,14.25
2022-12-01T19:17:07.593Z,21.58
2022-12-01T19:19:40.891Z,20.88
2022-12-01T19:22:14.572Z,16.20
2022-12-01T19:24:50.801Z,14.07
2022-12-01T19:27:24.365Z,11.52
2022-12-01T19:29:57.950Z,10.52
2022-12-01T19:32:32.317Z,11.40
2022-12-01T19:35:06.275Z,10.40
2022-12-01T19:37:39.632Z,11.07
2022-12-01T19:40:15.445Z,10.15
2022-12-01T19:42:48.907Z,11.95
2022-12-01T19:45:22.534Z,13.65
2022-12-01T19:47:56.057Z,13.85
2022-12-01T19:50:29.329Z,12.77
2022-12-01T19:53:02.878Z,10.20
2022-12-01T19:55:38.684Z,12.10
2022-12-01T19:58:12.137Z,10.73
2022-12-01T20:00:46.493Z,11.25
2022-12-01T20:03:19.824Z,12.27
2022-12-01T20:05:53.252Z,12.40
2022-12-01T20:08:26.660Z,12.55
2022-12-01T20:11:03.611Z,13.38
2022-12-01T20:13:38.406Z,13.15
2022-12-01T20:16:13.872Z,11.43
2022-12-01T20:18:47.623Z,12.57
2022-12-01T20:21:23.098Z,13.48
2022-12-01T20:23:58.765Z,13.40
2022-12-01T20:26:37.061Z,12.55
2022-12-01T20:29:13.297Z,12.38
2022-12-01T20:31:47.463Z,13.50
2022-12-01T20:34:25.474Z,28.27
2022-12-01T20:36:59.243Z,14.38
2022-12-01T20:39:34.716Z,12.45
2022-12-01T20:42:09.952Z,12.43
2022-12-01T20:44:43.342Z,14.52
2022-12-01T20:47:18.577Z,11.52
2022-12-01T20:49:55.509Z,12.98
2022-12-01T20:52:31.803Z,12.98
2022-12-01T20:55:05.659Z,12.95
2022-12-01T20:57:40.390Z,14.82
2022-12-01T21:00:15.014Z,17.23
2022-12-01T21:02:48.463Z,16.35
2022-12-01T21:05:21.861Z,17.50
2022-12-01T21:07:55.787Z,15.88
2022-12-01T21:10:29.609Z,19.20
2022-12-01T21:13:33.667Z,15.82
2022-12-01T21:16:14.092Z,15.48
2022-12-01T21:18:51.991Z,15.15
2022-12-01T21:21:27.609Z,16.60
2022-12-01T21:24:14.556Z,15.80
2022-12-01T21:26:50.418Z,12.88
2022-12-01T21:29:27.839Z,15.73
2022-12-01T21:32:08.109Z,13.13
2022-12-01T21:34:41.440Z,18.63
2022-12-01T21:37:21.559Z,17.45
2022-12-01T21:39:58.359Z,17.38
2022-12-01T21:42:32.933Z,16.77
2022-12-01T21:45:18.219Z,15.15
2022-12-01T21:47:51.463Z,14.50
2022-12-01T21:50:27.314Z,14.95
2022-12-01T21:53:01.180Z,13.52
2022-12-01T21:55:38.653Z,13.73
2022-12-01T21:58:25.450Z,14.18
2022-12-01T22:01:00.846Z,13.18
2022-12-01T22:03:35.623Z,13.02
2022-12-01T22:06:29.605Z,14.25
2022-12-01T22:09:15.393Z,15.20
2022-12-01T22:11:52.497Z,15.63
2022-12-01T22:14:30.503Z,16.33
2022-12-01T22:17:19.643Z,14.45
2022-12-01T22:19:58.138Z,14.07
2022-12-01T22:22:32.792Z,13.27
2022-12-01T22:25:22.040Z,15.18
2022-12-01T22:27:56.129Z,13.85
2022-12-01T22:30:29.463Z,14.48
2022-12-01T22:33:05.011Z,15.13
2022-12-01T22:35:43.100Z,13.38
2022-12-01T22:38:36.055Z,13.50
2022-12-01T22:41:12.737Z,13.05
2022-12-01T22:43:48.568Z,14.43
2022-12-01T22:46:25.785Z,14.32
2022-12-01T22:49:03.707Z,13.82
2022-12-01T22:51:40.734Z,13.50
2022-12-01T22:54:33.281Z,15.43
2022-12-01T22:57:26.912Z,17.40
2022-12-01T23:00:14.101Z,14.38
2022-12-01T23:02:49.558Z,17.13
2022-12-01T23:05:26.652Z,15.85
2022-12-01T23:08:00.226Z,15.00
2022-12-01T23:10:36.033Z,14.32
2022-12-01T23:13:16.211Z,12.68
2022-12-01T23:15:51.549Z,16.15
2022-12-01T23:18:27.015Z,12.93
2022-12-01T23:21:02.750Z,13.40
2022-12-01T23:23:38.493Z,14.60
2022-12-01T23:26:11.873Z,13.93
2022-12-01T23:28:45.323Z,12.90
2022-12-01T23:31:18.680Z,16.27
2022-12-01T23:33:52.233Z,13.95
2022-12-01T23:36:29.403Z,13.80
2022-12-01T23:39:05.869Z,15.77
2022-12-01T23:41:41.583Z,15.43
2022-12-01T23:44:21.130Z,15.18
2022-12-01T23:46:57.069Z,13.70
2022-12-01T23:49:33.400Z,12.55
2022-12-01T23:52:14.720Z,12.98
2022-12-01T23:54:48.999Z,13.30
2022-12-01T23:57:24.967Z,14.35
